createdAt,value
2023-03-30T00:02:24.761Z,81.20
2023-03-30T00:04:53.351Z,81.40
2023-03-30T00:07:21.711Z,81.70
2023-03-30T00:09:49.893Z,82.00
2023-03-30T00:12:20.915Z,82.20
2023-03-30T00:14:51.291Z,82.40
2023-03-30T00:17:19.474Z,82.80
2023-03-30T00:19:47.666Z,83.00
2023-03-30T00:22:16.171Z,83.40
2023-03-30T00:24:44.347Z,83.70
2023-03-30T00:27:12.532Z,83.90
2023-03-30T00:29:40.806Z,84.30
2023-03-30T00:32:10.359Z,84.70
2023-03-30T00:34:38.567Z,85.00
2023-03-30T00:37:06.714Z,85.50
2023-03-30T00:39:35.035Z,85.80
2023-03-30T00:42:03.253Z,86.00
2023-03-30T00:45:11.122Z,86.10
2023-03-30T00:47:43.660Z,86.60
2023-03-30T00:50:12.792Z,86.90
2023-03-30T00:52:44.327Z,87.10
2023-03-30T00:55:13.745Z,87.40
2023-03-30T00:57:44.431Z,87.90
2023-03-30T01:00:15.169Z,88.10
2023-03-30T01:02:48.707Z,88.50
2023-03-30T01:05:17.848Z,88.70
2023-03-30T01:07:49.879Z,89.10
2023-03-30T01:10:19.288Z,89.30
2023-03-30T01:12:47.896Z,89.50
2023-03-30T01:15:17.775Z,89.80
2023-03-30T01:18:08.939Z,89.90
2023-03-30T01:21:13.713Z,90.30
2023-03-30T01:24:34.852Z,90.50
2023-03-30T01:27:19.194Z,90.70
2023-03-30T01:30:07.399Z,90.80
2023-03-30T01:33:07.772Z,91.00
2023-03-30T01:36:31.112Z,91.20
2023-03-30T01:39:15.878Z,91.40
2023-03-30T01:41:51.625Z,91.50
2023-03-30T01:44:30.137Z,91.60
2023-03-30T01:47:06.317Z,91.90
2023-03-30T01:49:41.860Z,92.10
2023-03-30T01:52:18.895Z,92.40
2023-03-30T01:54:52.149Z,92.50
2023-03-30T01:57:28.131Z,92.60
2023-03-30T01:59:58.535Z,92.80
2023-03-30T02:02:32.901Z,93.00
2023-03-30T02:05:05.275Z,93.10
2023-03-30T02:07:36.699Z,93.30
2023-03-30T02:10:12.137Z,93.40
2023-03-30T02:12:40.580Z,93.70
2023-03-30T02:15:14.383Z,93.80
2023-03-30T02:17:45.919Z,94.00
2023-03-30T02:20:16.379Z,94.20
2023-03-30T02:22:45.894Z,94.50
2023-03-30T02:25:15.693Z,94.70
2023-03-30T02:27:43.953Z,95.20
2023-03-30T02:30:16.290Z,95.20
2023-03-30T02:32:48.799Z,95.30
2023-03-30T02:35:37.588Z,95.60
2023-03-30T02:38:29.477Z,95.90
2023-03-30T02:41:14.882Z,96.00
2023-03-30T02:43:49.227Z,96.40
2023-03-30T02:46:31.308Z,96.40
2023-03-30T02:49:14.374Z,96.60
2023-03-30T02:51:51.040Z,96.80
2023-03-30T02:54:32.055Z,97.10
2023-03-30T02:57:28.807Z,97.60
2023-03-30T03:00:14.874Z,97.50
2023-03-30T03:02:47.762Z,97.80
2023-03-30T03:05:26.443Z,97.90
2023-03-30T03:08:16.579Z,98.20
2023-03-30T03:10:46.541Z,98.50
2023-03-30T03:13:17.382Z,98.60
2023-03-30T03:15:46.648Z,99.10
2023-03-30T03:18:15.126Z,99.10
2023-03-30T03:20:46.368Z,99.40
2023-03-30T03:23:14.624Z,99.50
2023-03-30T03:25:48.438Z,99.70
2023-03-30T03:28:20.531Z,99.90
2023-03-30T03:31:00.185Z,99.90
2023-03-30T03:33:29.325Z,99.90
2023-03-30T03:36:11.072Z,99.90
2023-03-30T03:38:44.556Z,99.90
2023-03-30T03:41:12.953Z,99.90
2023-03-30T03:43:44.008Z,99.90
2023-03-30T03:46:12.295Z,99.90
2023-03-30T03:48:41.467Z,99.90
2023-03-30T03:51:11.261Z,99.90
2023-03-30T03:53:39.616Z,99.90
2023-03-30T03:56:11.845Z,99.90
2023-03-30T03:58:40.184Z,99.90
2023-03-30T04:01:09.813Z,99.90
2023-03-30T04:03:41.992Z,99.90
2023-03-30T04:06:10.674Z,99.90
2023-03-30T04:08:39.167Z,99.90
2023-03-30T04:11:19.810Z,99.90
2023-03-30T04:14:06.366Z,99.90
2023-03-30T04:16:58.903Z,99.90
2023-03-30T04:19:42.055Z,99.90
2023-03-30T04:22:36.939Z,99.90
2023-03-30T04:25:25.813Z,99.90
2023-03-30T04:28:21.646Z,99.90
2023-03-30T04:31:13.027Z,99.90
2023-03-30T04:33:56.113Z,99.90
2023-03-30T04:36:37.909Z,99.90
2023-03-30T04:39:30.456Z,99.90
2023-03-30T04:42:30.333Z,99.90
2023-03-30T04:45:18.379Z,99.90
2023-03-30T04:48:01.709Z,99.90
2023-03-30T04:50:57.064Z,99.90
2023-03-30T04:53:48.395Z,99.90
2023-03-30T04:56:16.591Z,99.90
2023-03-30T04:58:57.154Z,99.90
2023-03-30T05:01:45.450Z,99.90
2023-03-30T05:04:34.182Z,99.90
2023-03-30T05:07:32.890Z,99.90
2023-03-30T05:10:19.856Z,99.90
2023-03-30T05:13:06.277Z,99.90
2023-03-30T05:15:55.650Z,99.90
2023-03-30T05:18:47.719Z,99.90
2023-03-30T05:21:36.360Z,99.90
2023-03-30T05:24:30.557Z,99.90
2023-03-30T05:27:11.975Z,99.90
2023-03-30T05:30:02.486Z,99.90
2023-03-30T05:32:43.038Z,99.90
2023-03-30T05:35:24.848Z,99.90
2023-03-30T05:38:04.711Z,99.90
2023-03-30T05:40:46.521Z,99.90
2023-03-30T05:43:23.290Z,99.90
2023-03-30T05:46:09.938Z,99.90
2023-03-30T05:48:58.512Z,99.90
2023-03-30T05:51:49.248Z,99.90
2023-03-30T05:54:37.658Z,99.90
2023-03-30T05:57:27.166Z,99.90
2023-03-30T06:00:19.405Z,99.90
2023-03-30T06:03:05.532Z,99.90
2023-03-30T06:05:41.437Z,99.90
2023-03-30T06:08:09.694Z,99.90
2023-03-30T06:10:38.964Z,99.90
2023-03-30T06:13:11.598Z,99.90
2023-03-30T06:15:49.762Z,99.90
2023-03-30T06:18:21.709Z,99.90
2023-03-30T06:21:08.606Z,99.90
2023-03-30T06:23:57.035Z,99.90
2023-03-30T06:26:29.527Z,99.90
2023-03-30T06:29:00.145Z,99.90
2023-03-30T06:31:28.989Z,99.90
2023-03-30T06:34:17.136Z,99.90
2023-03-30T06:36:47.109Z,99.90
2023-03-30T06:39:17.608Z,99.90
2023-03-30T06:41:48.149Z,99.90
2023-03-30T06:44:35.365Z,99.90
2023-03-30T06:47:10.497Z,99.90
2023-03-30T06:49:38.785Z,99.90
2023-03-30T06:52:15.752Z,99.90
2023-03-30T06:54:46.557Z,99.90
2023-03-30T06:57:15.606Z,99.90
2023-03-30T06:59:45.277Z,99.90
2023-03-30T07:02:19.416Z,99.90
2023-03-30T07:04:51.968Z,99.90
2023-03-30T07:07:28.914Z,99.90
2023-03-30T07:09:57.243Z,99.90
2023-03-30T07:12:25.518Z,99.90
2023-03-30T07:14:55.515Z,99.90
2023-03-30T07:17:26.403Z,99.90
2023-03-30T07:19:55.156Z,99.90
2023-03-30T07:22:23.744Z,99.90
2023-03-30T07:24:54.429Z,99.90
2023-03-30T07:27:25.484Z,99.90
2023-03-30T07:30:04.595Z,99.90
2023-03-30T07:32:39.488Z,99.90
2023-03-30T07:35:10.217Z,99.90
2023-03-30T07:37:40.167Z,99.90
2023-03-30T07:40:10.149Z,99.90
2023-03-30T07:42:39.774Z,99.90
2023-03-30T07:45:10.877Z,99.90
2023-03-30T07:47:39.201Z,99.90
2023-03-30T07:50:09.073Z,99.90
2023-03-30T07:52:38.069Z,99.90
2023-03-30T07:55:07.807Z,99.90
2023-03-30T07:57:52.581Z,99.90
2023-03-30T08:00:23.966Z,99.90
2023-03-30T08:03:12.079Z,99.90
2023-03-30T08:05:40.496Z,99.90
2023-03-30T08:08:15.172Z,99.90
2023-03-30T08:10:43.505Z,99.90
2023-03-30T08:13:13.190Z,99.90
2023-03-30T08:15:46.683Z,99.90
2023-03-30T08:18:17.245Z,99.90
2023-03-30T08:20:45.529Z,99.90
2023-03-30T08:23:14.049Z,99.90
2023-03-30T08:25:43.249Z,99.90
2023-03-30T08:28:12.391Z,99.90
2023-03-30T08:30:40.902Z,99.90
2023-03-30T08:33:10.474Z,99.90
2023-03-30T08:35:38.705Z,99.90
2023-03-30T08:38:06.876Z,99.90
2023-03-30T08:40:35.084Z,99.90
2023-03-30T08:43:22.544Z,99.90
2023-03-30T08:45:51.883Z,99.90
2023-03-30T08:48:24.132Z,99.90
2023-03-30T08:50:57.758Z,99.90
2023-03-30T08:53:26.598Z,99.90
2023-03-30T08:56:02.420Z,99.90
2023-03-30T08:58:40.120Z,99.90
2023-03-30T09:01:18.045Z,99.90
2023-03-30T09:04:05.598Z,99.90
2023-03-30T09:06:47.021Z,99.90
2023-03-30T09:09:19.440Z,99.90
2023-03-30T09:11:51.458Z,99.90
2023-03-30T09:14:28.546Z,99.90
2023-03-30T09:17:03.480Z,99.90
2023-03-30T09:19:41.502Z,99.90
2023-03-30T09:22:13.882Z,99.90
2023-03-30T09:24:42.137Z,99.90
2023-03-30T09:27:18.867Z,99.90
2023-03-30T09:29:51.547Z,99.90
2023-03-30T09:32:28.531Z,99.90
2023-03-30T09:35:03.428Z,99.90
2023-03-30T09:37:32.226Z,99.90
2023-03-30T09:40:03.426Z,99.90
2023-03-30T09:42:39.844Z,99.90
2023-03-30T09:45:14.846Z,99.90
2023-03-30T09:47:43.738Z,99.90
2023-03-30T09:50:18.756Z,99.90
2023-03-30T09:52:58.074Z,99.90
2023-03-30T09:55:31.247Z,99.90
2023-03-30T09:58:13.172Z,99.90
2023-03-30T10:00:42.092Z,99.90
2023-03-30T10:03:21.455Z,99.90
2023-03-30T10:06:06.337Z,99.90
2023-03-30T10:08:37.901Z,99.90
2023-03-30T10:11:07.819Z,99.90
2023-03-30T10:13:39.855Z,99.90
2023-03-30T10:16:10.280Z,99.90
2023-03-30T10:18:41.563Z,99.90
2023-03-30T10:21:22.798Z,99.90
2023-03-30T10:24:02.477Z,99.90
2023-03-30T10:26:31.974Z,99.10
2023-03-30T10:29:05.138Z,97.00
2023-03-30T10:31:37.005Z,95.90
2023-03-30T10:34:08.044Z,95.50
2023-03-30T10:36:40.819Z,94.30
2023-03-30T10:39:15.269Z,92.70
2023-03-30T10:41:44.262Z,91.70
2023-03-30T10:44:21.634Z,90.70
2023-03-30T10:46:52.715Z,90.00
2023-03-30T10:49:35.447Z,89.70
2023-03-30T10:52:14.058Z,89.80
2023-03-30T10:54:46.041Z,89.50
2023-03-30T10:57:16.390Z,89.80
2023-03-30T10:59:59.944Z,90.40
2023-03-30T11:02:55.180Z,90.00
2023-03-30T11:05:32.407Z,88.30
2023-03-30T11:08:05.395Z,87.40
2023-03-30T11:10:38.454Z,87.80
2023-03-30T11:13:08.935Z,88.30
2023-03-30T11:15:42.009Z,88.80
2023-03-30T11:18:17.743Z,88.50
2023-03-30T11:20:52.579Z,89.20
2023-03-30T11:23:28.749Z,90.00
2023-03-30T11:26:03.542Z,90.30
2023-03-30T11:28:54.064Z,90.70
2023-03-30T11:31:42.083Z,90.70
2023-03-30T11:34:22.945Z,90.80
2023-03-30T11:37:00.717Z,90.90
2023-03-30T11:39:33.923Z,90.50
2023-03-30T11:42:14.688Z,90.30
2023-03-30T11:44:43.573Z,90.20
2023-03-30T11:47:26.902Z,90.20
2023-03-30T11:50:12.074Z,90.60
2023-03-30T11:52:47.650Z,90.50
2023-03-30T11:55:31.958Z,90.40
2023-03-30T11:58:13.409Z,88.90
2023-03-30T12:00:58.200Z,88.00
2023-03-30T12:03:40.035Z,87.30
2023-03-30T12:06:24.304Z,87.20
2023-03-30T12:09:21.886Z,86.60
2023-03-30T12:11:55.427Z,86.70
2023-03-30T12:14:49.576Z,86.20
2023-03-30T12:17:34.596Z,86.00
2023-03-30T12:20:11.044Z,84.10
2023-03-30T12:22:45.566Z,84.10
2023-03-30T12:25:26.022Z,84.40
2023-03-30T12:28:03.744Z,84.10
2023-03-30T12:30:43.978Z,83.90
2023-03-30T12:33:14.040Z,84.00
2023-03-30T12:35:57.758Z,84.00
2023-03-30T12:38:28.210Z,83.50
2023-03-30T12:41:18.564Z,83.80
2023-03-30T12:44:15.976Z,82.50
2023-03-30T12:46:58.493Z,83.20
2023-03-30T12:49:37.868Z,84.50
2023-03-30T12:52:14.058Z,85.80
2023-03-30T12:54:58.547Z,86.10
2023-03-30T12:57:37.467Z,86.90
2023-03-30T13:00:30.778Z,87.70
2023-03-30T13:03:17.052Z,88.70
2023-03-30T13:05:46.122Z,89.50
2023-03-30T13:08:23.703Z,90.00
2023-03-30T13:10:51.942Z,90.40
2023-03-30T13:13:24.894Z,90.70
2023-03-30T13:15:57.231Z,91.10
2023-03-30T13:18:40.840Z,91.30
2023-03-30T13:21:22.160Z,91.50
2023-03-30T13:24:20.479Z,91.70
2023-03-30T13:26:54.046Z,91.90
2023-03-30T13:29:26.301Z,92.10
2023-03-30T13:32:13.909Z,92.20
2023-03-30T13:35:08.299Z,92.40
2023-03-30T13:37:59.154Z,92.70
2023-03-30T13:40:39.611Z,92.80
2023-03-30T13:43:17.627Z,92.90
2023-03-30T13:45:56.342Z,93.10
2023-03-30T13:48:45.054Z,93.30
2023-03-30T13:51:15.830Z,93.50
2023-03-30T13:53:49.536Z,93.60
2023-03-30T13:56:18.504Z,93.80
2023-03-30T13:58:50.817Z,94.00
2023-03-30T14:01:23.087Z,94.20
2023-03-30T14:03:56.465Z,94.40
2023-03-30T14:06:26.456Z,94.60
2023-03-30T14:09:09.538Z,95.00
2023-03-30T14:11:40.020Z,95.30
2023-03-30T14:14:08.397Z,95.90
2023-03-30T14:16:39.535Z,96.20
2023-03-30T14:19:18.966Z,96.70
2023-03-30T14:21:48.469Z,96.90
2023-03-30T14:24:19.061Z,97.30
2023-03-30T14:26:50.330Z,97.50
2023-03-30T14:29:31.414Z,97.80
2023-03-30T14:34:36.270Z,98.20
2023-03-30T14:37:06.527Z,98.40
2023-03-30T14:39:40.128Z,98.70
2023-03-30T14:42:17.081Z,98.90
2023-03-30T14:44:46.865Z,99.10
2023-03-30T14:47:16.028Z,99.40
2023-03-30T14:49:47.631Z,99.60
2023-03-30T14:52:19.129Z,99.80
2023-03-30T14:55:04.284Z,99.90
2023-03-30T14:57:38.005Z,99.90
2023-03-30T15:00:21.067Z,99.90
2023-03-30T15:02:53.351Z,99.90
2023-03-30T15:05:25.574Z,99.90
2023-03-30T15:07:54.489Z,99.90
2023-03-30T15:10:28.182Z,99.90
2023-03-30T15:12:58.363Z,99.90
2023-03-30T15:15:30.401Z,99.90
2023-03-30T15:17:59.295Z,99.90
2023-03-30T15:20:32.806Z,99.90
2023-03-30T15:23:01.881Z,99.90
2023-03-30T15:25:33.864Z,99.90
2023-03-30T15:28:06.689Z,99.90
2023-03-30T15:30:37.781Z,99.90
2023-03-30T15:33:07.510Z,99.90
2023-03-30T15:35:38.752Z,99.90
2023-03-30T15:38:18.042Z,99.90
2023-03-30T15:40:48.333Z,99.90
2023-03-30T15:43:21.979Z,99.90
2023-03-30T15:45:53.664Z,99.90
2023-03-30T15:48:25.169Z,99.90
2023-03-30T15:51:01.290Z,99.90
2023-03-30T15:53:36.100Z,99.90
2023-03-30T15:56:06.469Z,99.90
2023-03-30T15:58:34.966Z,99.90
2023-03-30T16:01:04.885Z,99.90
2023-03-30T16:03:36.360Z,99.90
2023-03-30T16:06:06.381Z,99.90
2023-03-30T16:08:35.817Z,99.90
2023-03-30T16:11:04.673Z,99.90
2023-03-30T16:13:33.117Z,99.90
2023-03-30T16:16:01.341Z,99.90
2023-03-30T16:18:29.672Z,99.90
2023-03-30T16:20:57.873Z,99.90
2023-03-30T16:23:27.426Z,99.90
2023-03-30T16:25:55.579Z,99.90
2023-03-30T16:28:26.277Z,99.90
2023-03-30T16:30:58.830Z,99.90
2023-03-30T16:33:29.582Z,99.90
2023-03-30T16:36:00.936Z,99.90
2023-03-30T16:38:30.660Z,99.90
2023-03-30T16:41:01.339Z,99.90
2023-03-30T16:43:29.578Z,99.90
2023-03-30T16:45:57.790Z,99.90
2023-03-30T16:48:27.075Z,99.90
2023-03-30T16:50:57.698Z,99.90
2023-03-30T16:53:25.936Z,99.90
2023-03-30T16:55:55.558Z,99.90
2023-03-30T16:58:23.745Z,99.90
2023-03-30T17:00:53.656Z,99.90
2023-03-30T17:03:22.140Z,99.90
2023-03-30T17:05:51.447Z,99.90
2023-03-30T17:08:22.082Z,99.90
2023-03-30T17:10:51.343Z,99.90
2023-03-30T17:13:20.976Z,99.90
2023-03-30T17:15:49.209Z,99.90
2023-03-30T17:18:20.123Z,99.90
2023-03-30T17:20:51.173Z,99.90
2023-03-30T17:23:19.849Z,99.90
2023-03-30T17:25:49.427Z,99.90
2023-03-30T17:28:23.881Z,99.90
2023-03-30T17:30:56.692Z,99.90
2023-03-30T17:33:26.246Z,99.90
2023-03-30T17:35:59.412Z,99.90
2023-03-30T17:38:28.862Z,99.90
2023-03-30T17:40:57.558Z,99.90
2023-03-30T17:43:27.111Z,99.90
2023-03-30T17:45:55.320Z,99.90
2023-03-30T17:48:23.620Z,99.90
2023-03-30T17:50:52.594Z,99.90
2023-03-30T17:53:23.344Z,99.90
2023-03-30T17:55:52.909Z,99.90
2023-03-30T17:58:23.263Z,99.90
2023-03-30T18:00:54.138Z,99.90
2023-03-30T18:03:25.680Z,99.90
2023-03-30T18:05:57.847Z,99.90
2023-03-30T18:08:27.139Z,99.90
2023-03-30T18:10:57.122Z,99.90
2023-03-30T18:13:26.760Z,99.90
2023-03-30T18:15:58.549Z,99.90
2023-03-30T18:18:29.445Z,99.90
2023-03-30T18:20:59.419Z,99.90
2023-03-30T18:23:27.684Z,99.90
2023-03-30T18:25:55.984Z,99.90
2023-03-30T18:28:25.489Z,99.90
2023-03-30T18:30:55.381Z,99.90
2023-03-30T18:33:27.160Z,99.90
2023-03-30T18:35:56.866Z,99.90
2023-03-30T18:38:26.493Z,99.90
2023-03-30T18:40:57.875Z,99.90
2023-03-30T18:43:27.061Z,99.90
2023-03-30T18:45:58.516Z,99.90
2023-03-30T18:48:30.930Z,99.90
2023-03-30T18:50:59.480Z,99.90
2023-03-30T18:53:29.398Z,99.90
2023-03-30T18:56:00.901Z,99.90
2023-03-30T18:58:31.392Z,99.90
2023-03-30T19:00:59.620Z,99.90
2023-03-30T19:03:28.583Z,99.90
2023-03-30T19:05:58.183Z,99.90
2023-03-30T19:08:28.859Z,99.90
2023-03-30T19:10:58.734Z,99.90
2023-03-30T19:13:28.017Z,99.90
2023-03-30T19:15:56.579Z,99.90
2023-03-30T19:18:24.765Z,99.90
2023-03-30T19:20:55.538Z,99.90
2023-03-30T19:23:25.354Z,99.90
2023-03-30T19:25:54.138Z,99.90
2023-03-30T19:28:22.374Z,99.90
2023-03-30T19:30:50.696Z,99.90
2023-03-30T19:33:20.845Z,99.90
2023-03-30T19:35:49.108Z,99.90
2023-03-30T19:38:17.456Z,99.90
2023-03-30T19:40:47.594Z,99.90
2023-03-30T19:43:16.143Z,99.90
2023-03-30T19:45:44.478Z,99.90
2023-03-30T19:48:15.218Z,99.90
2023-03-30T19:50:43.418Z,99.90
2023-03-30T19:53:11.926Z,99.90
2023-03-30T19:55:40.195Z,99.90
2023-03-30T19:58:13.679Z,99.90
2023-03-30T20:00:43.617Z,99.90
2023-03-30T20:03:13.090Z,99.90
2023-03-30T20:10:03.098Z,99.90
2023-03-30T20:12:35.452Z,99.90
2023-03-30T20:15:06.521Z,99.90
2023-03-30T20:17:36.598Z,99.90
2023-03-30T20:20:10.770Z,99.90
2023-03-30T20:22:41.310Z,99.90
2023-03-30T20:25:11.893Z,99.90
2023-03-30T20:27:40.292Z,99.90
2023-03-30T20:30:11.774Z,99.90
2023-03-30T20:32:40.131Z,99.90
2023-03-30T20:35:09.092Z,99.90
2023-03-30T20:37:37.290Z,99.90
2023-03-30T20:40:10.017Z,99.90
2023-03-30T20:42:40.551Z,99.90
2023-03-30T20:45:13.814Z,99.90
2023-03-30T20:47:41.977Z,99.90
2023-03-30T20:50:12.307Z,99.90
2023-03-30T20:52:41.057Z,99.90
2023-03-30T20:55:10.019Z,99.90
2023-03-30T20:57:38.196Z,99.90
2023-03-30T21:00:07.610Z,99.90
2023-03-30T21:02:37.179Z,99.90
2023-03-30T21:05:06.074Z,99.90
2023-03-30T21:07:34.295Z,99.90
2023-03-30T21:10:02.437Z,99.90
2023-03-30T21:12:33.294Z,99.90
2023-03-30T21:15:03.827Z,99.90
2023-03-30T21:17:32.045Z,99.90
2023-03-30T21:20:07.551Z,99.90
2023-03-30T21:22:35.844Z,99.90
2023-03-30T21:25:04.098Z,99.90
2023-03-30T21:27:32.330Z,99.90
2023-03-30T21:30:00.571Z,99.90
2023-03-30T21:32:30.844Z,99.90
2023-03-30T21:34:59.777Z,99.90
2023-03-30T21:37:31.964Z,99.90
2023-03-30T21:40:00.177Z,99.90
2023-03-30T21:42:28.381Z,99.90
2023-03-30T21:44:56.618Z,99.90
2023-03-30T21:47:24.800Z,99.90
2023-03-30T21:49:52.974Z,99.90
2023-03-30T21:52:21.290Z,99.90
2023-03-30T21:54:50.938Z,99.90
2023-03-30T21:57:19.326Z,99.90
2023-03-30T21:59:47.614Z,99.90
2023-03-30T22:02:15.913Z,99.90
2023-03-30T22:04:44.729Z,99.90
2023-03-30T22:07:12.948Z,99.90
2023-03-30T22:09:41.296Z,99.90
2023-03-30T22:12:10.902Z,99.90
2023-03-30T22:14:39.148Z,99.90
2023-03-30T22:17:07.826Z,99.90
2023-03-30T22:19:36.177Z,99.90
2023-03-30T22:22:04.824Z,99.90
2023-03-30T22:24:35.601Z,99.90
2023-03-30T22:27:03.772Z,99.90
2023-03-30T22:29:33.456Z,99.90
2023-03-30T22:32:01.633Z,99.90
2023-03-30T22:34:31.704Z,99.90
2023-03-30T22:36:59.840Z,99.90
2023-03-30T22:39:28.065Z,99.90
2023-03-30T22:41:56.241Z,99.90
2023-03-30T22:44:24.420Z,99.90
2023-03-30T22:46:54.461Z,99.90
2023-03-30T22:49:25.851Z,99.90
2023-03-30T22:51:54.061Z,99.90
2023-03-30T22:54:22.518Z,99.90
2023-03-30T22:56:51.048Z,99.90
2023-03-30T22:59:19.237Z,99.90
2023-03-30T23:01:47.484Z,99.90
2023-03-30T23:04:17.099Z,99.90
2023-03-30T23:06:45.655Z,99.90
2023-03-30T23:09:14.598Z,99.90
2023-03-30T23:11:45.890Z,99.90
2023-03-30T23:14:14.603Z,99.90
2023-03-30T23:16:42.845Z,99.90
2023-03-30T23:19:12.118Z,99.90
2023-03-30T23:21:41.753Z,99.90
2023-03-30T23:24:12.239Z,99.90
2023-03-30T23:26:40.491Z,99.90
2023-03-30T23:29:08.652Z,99.90
2023-03-30T23:31:36.923Z,99.90
2023-03-30T23:34:05.387Z,99.90
2023-03-30T23:36:34.932Z,99.90
2023-03-30T23:39:05.518Z,99.90
2023-03-30T23:41:33.675Z,99.90
2023-03-30T23:44:01.885Z,99.90
2023-03-30T23:46:30.152Z,99.90
2023-03-30T23:48:58.450Z,99.90
2023-03-30T23:51:26.666Z,99.90
2023-03-30T23:53:56.780Z,99.90
2023-03-30T23:56:27.724Z,99.90
2023-03-30T23:58:59.154Z,99.90
